Time;durP1;ratioP1;P1;durP2;ratioP2;P2;SDS_P1;SDS_P2;PMS_P1;PMS_P2;Temp;Humidity;BMP_temperature;BMP_pressure;BME280_temperature;BME280_humidity;BME280_pressure;Samples;Min_cycle;Max_cycle;Signal;HPM_P1;HPM_P2
2024/04/07 00:01:36;;;;;;;9.87;4.83;;;11.20;99.90;;;;;;5051529;28;20028;-86
2024/04/07 00:04:06;;;;;;;14.07;4.70;;;11.20;99.90;;;;;;5051709;28;20025;-86
2024/04/07 00:06:32;;;;;;;15.27;5.68;;;11.10;99.90;;;;;;5052372;28;20036;-86
2024/04/07 00:08:58;;;;;;;8.00;4.93;;;11.00;99.90;;;;;;5051641;28;20033;-86
2024/04/07 00:11:24;;;;;;;12.25;5.75;;;11.00;99.90;;;;;;5051992;28;20036;-87
2024/04/07 00:13:50;;;;;;;8.60;5.10;;;11.00;99.90;;;;;;5051360;28;20075;-86
2024/04/07 00:16:15;;;;;;;9.33;5.37;;;11.00;99.90;;;;;;5050479;28;20044;-85
2024/04/07 00:18:41;;;;;;;11.50;5.20;;;10.90;99.90;;;;;;5056888;28;20032;-86
2024/04/07 00:21:06;;;;;;;7.97;4.80;;;10.90;99.90;;;;;;5055070;28;20033;-85
2024/04/07 00:23:32;;;;;;;8.07;4.80;;;10.90;99.90;;;;;;5054780;28;20033;-86
2024/04/07 00:25:59;;;;;;;8.80;5.05;;;10.90;99.90;;;;;;5055209;28;20163;-86
2024/04/07 00:28:24;;;;;;;8.25;4.57;;;10.90;99.90;;;;;;5056295;28;20032;-86
2024/04/07 00:30:50;;;;;;;8.80;4.90;;;10.90;99.90;;;;;;5056398;28;20040;-87
2024/04/07 00:33:16;;;;;;;12.18;5.18;;;10.90;99.90;;;;;;5057219;28;20182;-85
2024/04/07 00:35:59;;;;;;;11.13;5.70;;;10.90;99.90;;;;;;5055058;28;20052;-86
2024/04/07 00:38:26;;;;;;;8.00;4.60;;;10.80;99.90;;;;;;5054469;28;20655;-86
2024/04/07 00:40:56;;;;;;;10.67;5.10;;;10.70;99.90;;;;;;5054424;28;20936;-86
2024/04/07 00:43:22;;;;;;;9.43;5.17;;;10.70;99.90;;;;;;5055622;28;20032;-86
2024/04/07 00:45:48;;;;;;;9.37;5.30;;;10.60;99.90;;;;;;5055751;28;20028;-86
2024/04/07 00:48:17;;;;;;;8.70;5.57;;;10.60;99.90;;;;;;5055604;28;20040;-87
2024/04/07 00:50:47;;;;;;;8.33;5.00;;;10.50;99.90;;;;;;5055531;28;20032;-86
2024/04/07 00:53:16;;;;;;;8.07;5.37;;;10.50;99.90;;;;;;5056384;28;21457;-86
2024/04/07 00:55:43;;;;;;;9.60;5.07;;;10.50;99.90;;;;;;5054213;28;20039;-86
2024/04/07 00:58:14;;;;;;;9.43;4.80;;;10.40;99.90;;;;;;5056145;28;20082;-85
2024/04/07 01:00:43;;;;;;;8.50;4.90;;;10.40;99.90;;;;;;5056130;28;20036;-86
2024/04/07 01:03:10;;;;;;;6.57;4.53;;;10.40;99.90;;;;;;5055278;28;21306;-85
2024/04/07 01:05:46;;;;;;;8.30;4.40;;;10.40;99.90;;;;;;5054860;28;20033;-86
2024/04/07 01:08:13;;;;;;;8.13;4.77;;;10.40;99.90;;;;;;5055164;28;20033;-86
2024/04/07 01:10:39;;;;;;;7.07;4.10;;;10.40;99.90;;;;;;5055994;28;20029;-86
2024/04/07 01:13:06;;;;;;;6.23;3.97;;;10.50;99.90;;;;;;5055892;28;20048;-86
2024/04/07 01:15:36;;;;;;;6.67;3.70;;;10.50;99.90;;;;;;5053167;28;20032;-86
2024/04/07 01:18:02;;;;;;;15.03;4.57;;;10.50;99.90;;;;;;5054972;28;20025;-86
2024/04/07 01:20:28;;;;;;;8.80;4.27;;;10.50;99.90;;;;;;5054364;28;20044;-86
2024/04/07 01:22:54;;;;;;;6.57;4.07;;;10.50;99.90;;;;;;5051712;28;20074;-86
2024/04/07 01:25:23;;;;;;;5.93;3.93;;;10.60;99.90;;;;;;5052516;28;20036;-86
2024/04/07 01:27:54;;;;;;;5.83;3.77;;;10.60;99.90;;;;;;5053168;28;20116;-86
2024/04/07 01:30:20;;;;;;;7.37;3.30;;;10.60;99.90;;;;;;5054074;28;20439;-85
2024/04/07 01:32:46;;;;;;;7.40;3.03;;;10.60;99.90;;;;;;5053328;28;20044;-86
2024/04/07 01:35:11;;;;;;;4.07;2.67;;;10.70;99.90;;;;;;5052777;28;20037;-86
2024/04/07 01:37:37;;;;;;;5.77;2.63;;;10.70;99.90;;;;;;5052112;28;20033;-86
2024/04/07 01:40:03;;;;;;;5.57;2.90;;;10.80;99.90;;;;;;5054807;28;20036;-86
2024/04/07 01:42:32;;;;;;;4.63;2.43;;;10.80;99.90;;;;;;5053928;28;20036;-87
2024/04/07 01:44:57;;;;;;;6.77;2.63;;;10.90;99.90;;;;;;5054815;28;20157;-85
2024/04/07 01:47:23;;;;;;;7.37;2.80;;;10.90;99.90;;;;;;5050382;28;20548;-85
2024/04/07 01:49:49;;;;;;;5.93;3.53;;;11.00;99.90;;;;;;5053802;28;20021;-86
2024/04/07 01:52:15;;;;;;;5.60;3.10;;;11.00;99.90;;;;;;5054709;28;20025;-86
2024/04/07 01:54:41;;;;;;;5.20;3.30;;;11.00;99.90;;;;;;5054389;28;20119;-86
2024/04/07 01:57:06;;;;;;;6.67;3.40;;;11.00;99.90;;;;;;5054293;28;20032;-86
2024/04/07 01:59:32;;;;;;;5.13;2.93;;;10.90;99.90;;;;;;5053426;28;20021;-86
2024/04/07 02:01:58;;;;;;;5.10;2.87;;;10.90;99.90;;;;;;5054327;28;20055;-86
2024/04/07 02:04:24;;;;;;;6.87;2.80;;;10.90;99.90;;;;;;5054324;28;20037;-86
2024/04/07 02:06:49;;;;;;;5.53;2.80;;;10.80;99.90;;;;;;5053910;28;20082;-86
2024/04/07 02:09:16;;;;;;;4.10;2.60;;;10.80;99.90;;;;;;5052420;28;20032;-86
2024/04/07 02:11:42;;;;;;;5.97;3.47;;;10.80;99.90;;;;;;5053671;28;20038;-86
2024/04/07 02:14:08;;;;;;;5.53;2.57;;;10.70;99.90;;;;;;5053974;28;20024;-86
2024/04/07 02:16:34;;;;;;;4.30;3.00;;;10.70;99.90;;;;;;5053068;28;20417;-86
2024/04/07 02:18:59;;;;;;;7.67;2.73;;;10.70;99.90;;;;;;5053733;28;20032;-86
2024/04/07 02:21:25;;;;;;;4.80;2.73;;;10.60;99.90;;;;;;5054118;28;20667;-86
2024/04/07 02:23:50;;;;;;;4.70;2.97;;;10.60;99.90;;;;;;5054214;28;20102;-86
2024/04/07 02:26:16;;;;;;;4.33;2.70;;;10.60;99.90;;;;;;5050711;28;20040;-86
2024/04/07 02:28:41;;;;;;;5.20;2.90;;;10.60;99.90;;;;;;5054390;28;20024;-85
2024/04/07 02:31:07;;;;;;;4.77;2.33;;;10.50;99.90;;;;;;5053116;28;20178;-85
2024/04/07 02:33:32;;;;;;;5.60;2.43;;;10.50;99.90;;;;;;5053821;28;20074;-85
2024/04/07 02:35:58;;;;;;;9.63;3.53;;;10.50;99.90;;;;;;5050996;28;20060;-86
2024/04/07 02:38:24;;;;;;;4.23;2.23;;;10.40;99.90;;;;;;5053255;28;20060;-85
2024/04/07 02:40:49;;;;;;;4.43;2.10;;;10.40;99.90;;;;;;5053254;28;20078;-86
2024/04/07 02:43:15;;;;;;;3.70;2.70;;;10.40;99.90;;;;;;5054409;28;20554;-85
2024/04/07 02:48:25;;;;;;;6.57;2.40;;;10.30;99.90;;;;;;5053652;28;20114;-85
2024/04/07 02:50:51;;;;;;;6.43;2.43;;;10.30;99.90;;;;;;5053114;28;20026;-86
2024/04/07 02:53:17;;;;;;;7.77;2.53;;;10.30;99.90;;;;;;5051164;28;20036;-86
2024/04/07 02:55:42;;;;;;;6.07;2.63;;;10.30;99.90;;;;;;5053441;28;20051;-86
2024/04/07 02:58:08;;;;;;;4.97;2.30;;;10.30;99.90;;;;;;5055470;28;20024;-85
2024/04/07 03:00:34;;;;;;;4.63;2.10;;;10.30;99.90;;;;;;5054826;28;20039;-85
2024/04/07 03:02:59;;;;;;;4.93;2.47;;;10.30;99.90;;;;;;5053459;28;20044;-86
2024/04/07 03:05:25;;;;;;;4.60;2.20;;;10.20;99.90;;;;;;5054622;28;20067;-86
2024/04/07 03:07:51;;;;;;;6.23;2.37;;;10.20;99.90;;;;;;5052697;28;20028;-85
2024/04/07 03:10:18;;;;;;;5.17;2.53;;;10.20;99.90;;;;;;5051469;28;21523;-86
2024/04/07 03:12:47;;;;;;;9.27;2.70;;;10.20;99.90;;;;;;5053184;28;20033;-86
2024/04/07 03:15:13;;;;;;;6.20;2.30;;;10.20;99.90;;;;;;5051467;28;20084;-86
2024/04/07 03:17:38;;;;;;;7.13;2.50;;;10.10;99.90;;;;;;5051445;28;20028;-86
2024/04/07 03:20:05;;;;;;;7.60;2.60;;;10.10;99.90;;;;;;5053848;28;20021;-86
2024/04/07 03:22:30;;;;;;;8.00;2.50;;;10.10;99.90;;;;;;5052073;28;20033;-85
2024/04/07 03:24:56;;;;;;;5.93;2.43;;;10.00;99.90;;;;;;5053441;28;20079;-86
2024/04/07 03:27:21;;;;;;;6.90;2.37;;;10.00;99.90;;;;;;5052427;28;20013;-86
2024/04/07 03:29:47;;;;;;;5.17;2.20;;;10.00;99.90;;;;;;5050765;28;20040;-87
2024/04/07 03:32:12;;;;;;;10.57;2.77;;;10.00;99.90;;;;;;5050018;28;20033;-86
2024/04/07 03:34:38;;;;;;;3.47;2.10;;;9.90;99.90;;;;;;5051473;28;20095;-86
2024/04/07 03:37:06;;;;;;;5.00;2.27;;;10.00;99.90;;;;;;5050853;28;20119;-86
2024/04/07 03:39:33;;;;;;;5.77;2.30;;;10.00;99.90;;;;;;5052293;28;20688;-85
2024/04/07 03:41:58;;;;;;;4.90;2.50;;;10.00;99.90;;;;;;5052487;28;20554;-86
2024/04/07 03:44:25;;;;;;;3.13;1.90;;;10.00;99.90;;;;;;5051291;28;20025;-86
2024/04/07 03:46:50;;;;;;;4.90;2.20;;;10.00;99.90;;;;;;5052500;28;20471;-86
2024/04/07 03:49:16;;;;;;;5.20;2.30;;;10.00;99.90;;;;;;5053089;28;20043;-85
2024/04/07 03:51:41;;;;;;;3.30;2.00;;;10.00;99.90;;;;;;5051524;28;20037;-86
2024/04/07 03:54:07;;;;;;;4.40;2.33;;;10.00;99.90;;;;;;5056771;28;20033;-86
2024/04/07 03:56:33;;;;;;;9.77;2.33;;;10.00;99.90;;;;;;5055626;28;20056;-86
2024/04/07 03:58:58;;;;;;;6.07;2.13;;;10.00;99.90;;;;;;5056293;28;20024;-86
2024/04/07 04:01:24;;;;;;;3.10;2.00;;;10.00;99.90;;;;;;5056912;28;20060;-86
2024/04/07 04:03:49;;;;;;;6.80;2.20;;;10.00;99.90;;;;;;5054928;28;20107;-86
2024/04/07 04:06:15;;;;;;;4.53;2.87;;;10.00;99.90;;;;;;5056360;28;20041;-86
2024/04/07 04:08:41;;;;;;;3.73;2.13;;;10.00;99.90;;;;;;5055939;28;21473;-86
2024/04/07 04:11:08;;;;;;;3.00;1.80;;;10.00;99.90;;;;;;5053947;28;20037;-86
2024/04/07 04:13:37;;;;;;;2.60;1.73;;;10.10;99.90;;;;;;5056540;28;20033;-86
2024/04/07 04:16:04;;;;;;;4.20;1.60;;;10.10;99.90;;;;;;5053263;28;20056;-86
2024/04/07 04:18:29;;;;;;;2.37;1.47;;;10.10;99.90;;;;;;5054757;28;20381;-86
2024/04/07 04:20:55;;;;;;;3.43;1.40;;;10.20;99.90;;;;;;5055883;28;20027;-85
2024/04/07 04:23:20;;;;;;;2.73;1.57;;;10.30;99.90;;;;;;5057168;28;20489;-86
2024/04/07 04:25:55;;;;;;;3.63;1.57;;;10.30;99.90;;;;;;5055696;28;20677;-86
2024/04/07 04:28:21;;;;;;;;;;;10.40;99.90;;;;;;5055491;28;20024;-85
2024/04/07 04:30:54;;;;;;;2.77;1.63;;;10.50;99.90;;;;;;5057168;28;19924;-87
2024/04/07 04:33:23;;;;;;;4.47;1.40;;;10.60;99.90;;;;;;5055428;28;20021;-86
2024/04/07 04:35:49;;;;;;;6.43;1.87;;;10.80;99.90;;;;;;5054800;28;20032;-86
2024/04/07 04:38:16;;;;;;;4.77;1.37;;;10.90;99.90;;;;;;5055266;28;20029;-86
2024/04/07 04:40:54;;;;;;;2.63;1.50;;;11.00;99.90;;;;;;5055411;28;20421;-86
2024/04/07 04:43:20;;;;;;;3.83;1.40;;;11.10;99.90;;;;;;5055579;28;20017;-86
2024/04/07 04:46:00;;;;;;;2.90;1.50;;;11.20;99.90;;;;;;5055366;28;20083;-86
2024/04/07 04:48:26;;;;;;;2.80;1.50;;;11.30;99.90;;;;;;5055224;28;20043;-86
2024/04/07 04:50:54;;;;;;;3.80;1.77;;;11.30;99.90;;;;;;5056024;28;20456;-85
2024/04/07 04:53:19;;;;;;;2.63;1.33;;;11.30;99.90;;;;;;5051753;28;20029;-85
2024/04/07 04:55:45;;;;;;;3.00;1.53;;;11.30;99.90;;;;;;5053008;28;20051;-85
2024/04/07 04:58:11;;;;;;;3.50;1.60;;;11.30;99.90;;;;;;5055612;28;20447;-86
2024/04/07 05:00:36;;;;;;;4.63;1.70;;;11.30;99.90;;;;;;5056241;28;20054;-87
2024/04/07 05:03:02;;;;;;;4.00;1.60;;;11.30;99.90;;;;;;5055067;28;20493;-86
2024/04/07 05:05:28;;;;;;;2.60;1.57;;;11.20;99.90;;;;;;5054209;28;20405;-86
2024/04/07 05:07:53;;;;;;;2.50;1.67;;;11.20;99.90;;;;;;5055089;28;20123;-86
2024/04/07 05:10:19;;;;;;;4.57;1.60;;;11.20;99.90;;;;;;5053300;28;20043;-86
2024/04/07 05:12:44;;;;;;;2.90;1.70;;;11.20;99.90;;;;;;5054383;28;20024;-86
2024/04/07 05:15:10;;;;;;;5.70;1.43;;;11.20;99.90;;;;;;5054030;28;20028;-86
2024/04/07 05:17:35;;;;;;;5.23;1.60;;;11.20;99.90;;;;;;5053056;28;20094;-86
2024/04/07 05:20:01;;;;;;;5.10;1.70;;;11.20;99.90;;;;;;5053689;28;20032;-85
2024/04/07 05:22:27;;;;;;;4.87;1.70;;;11.20;99.90;;;;;;5053966;28;20789;-86
2024/04/07 05:24:52;;;;;;;4.40;1.97;;;11.20;99.90;;;;;;5052594;28;20472;-85
2024/04/07 05:27:18;;;;;;;3.77;1.70;;;11.20;99.90;;;;;;5053266;28;20059;-87
2024/04/07 05:29:50;;;;;;;3.23;1.63;;;11.20;99.90;;;;;;5054612;28;20046;-85
2024/04/07 05:32:15;;;;;;;4.70;1.70;;;11.20;99.90;;;;;;5054527;28;20412;-86
2024/04/07 05:34:41;;;;;;;3.93;1.83;;;11.30;99.90;;;;;;5054189;28;20028;-86
2024/04/07 05:37:06;;;;;;;3.33;1.80;;;11.30;99.90;;;;;;5053164;28;20860;-85
2024/04/07 05:39:32;;;;;;;4.10;1.60;;;11.30;99.90;;;;;;5056139;28;20951;-85
2024/04/07 05:41:59;;;;;;;5.88;1.80;;;11.20;99.90;;;;;;5055490;28;20020;-85
2024/04/07 05:44:25;;;;;;;3.25;1.70;;;11.30;99.90;;;;;;5054788;28;20064;-87
2024/04/07 05:46:51;;;;;;;5.87;1.60;;;11.30;99.90;;;;;;5053711;28;20166;-86
2024/04/07 05:49:17;;;;;;;4.93;1.50;;;11.40;99.90;;;;;;5053815;28;20055;-85
2024/04/07 05:51:42;;;;;;;3.90;1.80;;;11.50;99.90;;;;;;5053288;28;20056;-84
2024/04/07 05:54:08;;;;;;;4.67;1.80;;;11.60;99.90;;;;;;5053422;28;20029;-85
2024/04/07 05:56:33;;;;;;;2.70;1.67;;;11.60;99.90;;;;;;5051341;28;20036;-86
2024/04/07 05:58:59;;;;;;;2.45;1.30;;;11.70;99.90;;;;;;5054542;28;20047;-87
2024/04/07 06:01:26;;;;;;;3.73;2.33;;;11.80;99.90;;;;;;5053071;28;20040;-87
2024/04/07 06:03:51;;;;;;;2.65;1.90;;;11.90;99.90;;;;;;5054502;28;20043;-82
2024/04/07 06:06:17;;;;;;;3.63;1.55;;;12.00;99.90;;;;;;5048435;28;21474;-77
2024/04/07 06:08:43;;;;;;;2.70;1.55;;;12.10;99.90;;;;;;5050679;28;20079;-74
2024/04/07 06:11:08;;;;;;;4.03;2.10;;;12.20;99.90;;;;;;5050893;28;20036;-74
2024/04/07 06:13:34;;;;;;;3.03;1.63;;;12.30;99.90;;;;;;5051295;28;20107;-74
2024/04/07 06:15:59;;;;;;;2.50;1.50;;;12.30;99.90;;;;;;5050111;28;20028;-74
2024/04/07 06:18:25;;;;;;;7.47;1.90;;;12.40;99.90;;;;;;5052334;28;20069;-73
2024/04/07 06:20:53;;;;;;;2.60;1.50;;;12.50;99.90;;;;;;5051240;28;20980;-74
2024/04/07 06:23:19;;;;;;;4.05;1.55;;;12.60;99.90;;;;;;5053404;28;20405;-74
2024/04/07 06:25:46;;;;;;;3.50;1.65;;;12.70;99.90;;;;;;5050963;28;20025;-74
2024/04/07 06:28:12;;;;;;;3.25;1.63;;;12.80;99.90;;;;;;5052808;28;20025;-75
2024/04/07 06:30:38;;;;;;;2.78;1.98;;;12.90;99.90;;;;;;5053892;28;20025;-74
2024/04/07 06:33:04;;;;;;;3.47;1.73;;;13.10;99.90;;;;;;5051972;28;20032;-74
2024/04/07 06:35:30;;;;;;;4.70;1.63;;;13.20;99.90;;;;;;5055802;28;20098;-86
2024/04/07 06:37:56;;;;;;;3.53;1.70;;;13.40;99.90;;;;;;5051996;28;20021;-86
2024/04/07 06:40:21;;;;;;;2.45;1.65;;;13.50;99.90;;;;;;5052401;28;20028;-85
2024/04/07 06:42:47;;;;;;;3.60;1.60;;;13.60;99.90;;;;;;5053551;28;20137;-85
2024/04/07 06:45:14;;;;;;;4.18;1.60;;;13.80;99.90;;;;;;5052737;28;20025;-85
2024/04/07 06:47:39;;;;;;;3.88;1.60;;;13.90;99.90;;;;;;5057697;28;20832;-84
2024/04/07 06:50:05;;;;;;;4.28;1.55;;;14.10;99.90;;;;;;5054981;28;20038;-81
2024/04/07 06:52:31;;;;;;;2.40;1.70;;;14.20;99.90;;;;;;5056598;28;20116;-82
2024/04/07 06:54:56;;;;;;;2.30;1.45;;;14.30;99.90;;;;;;5055576;28;20036;-82
2024/04/07 06:57:22;;;;;;;2.97;1.92;;;14.40;99.90;;;;;;5054982;28;20047;-83
2024/04/07 06:59:50;;;;;;;3.92;1.52;;;14.60;99.90;;;;;;5057013;28;20026;-83
2024/04/07 07:02:16;;;;;;;3.05;1.75;;;14.70;99.90;;;;;;5057661;28;20029;-85
2024/04/07 07:04:41;;;;;;;3.28;1.60;;;15.00;99.90;;;;;;5060118;28;20037;-85
2024/04/07 07:07:07;;;;;;;2.58;1.65;;;15.10;99.90;;;;;;5061062;28;20120;-84
2024/04/07 07:09:33;;;;;;;4.13;1.90;;;15.20;99.90;;;;;;5060618;28;20025;-90
2024/04/07 07:11:59;;;;;;;7.80;2.10;;;15.20;99.90;;;;;;5069001;28;20029;-90
2024/04/07 07:14:25;;;;;;;5.72;1.88;;;15.20;99.90;;;;;;5069747;28;20036;-90
2024/04/07 07:16:53;;;;;;;2.00;1.50;;;15.20;99.90;;;;;;5068749;28;20071;-92
2024/04/07 07:19:21;;;;;;;2.53;1.40;;;15.10;99.90;;;;;;5072211;28;20052;-92
2024/04/07 07:21:46;;;;;;;3.05;1.50;;;15.10;99.90;;;;;;5072618;28;20080;-89
2024/04/07 07:24:12;;;;;;;2.88;1.30;;;15.10;99.90;;;;;;5070773;28;20075;-91
2024/04/07 07:26:37;;;;;;;4.28;1.23;;;15.00;99.90;;;;;;5074504;28;20101;-92
2024/04/07 07:29:03;;;;;;;2.85;1.40;;;15.00;99.90;;;;;;5070373;28;20036;-91
2024/04/07 07:31:32;;;;;;;3.13;1.35;;;15.00;99.90;;;;;;5071100;28;20105;-90
2024/04/07 07:33:58;;;;;;;5.60;1.30;;;14.90;99.90;;;;;;5070950;28;20131;-88
2024/04/07 07:36:23;;;;;;;3.13;1.00;;;14.90;99.90;;;;;;5067144;28;20092;-90
2024/04/07 07:38:49;;;;;;;7.75;1.48;;;15.00;99.90;;;;;;5065384;28;20029;-91
2024/04/07 07:41:18;;;;;;;2.55;1.10;;;15.10;99.90;;;;;;5068316;28;21259;-90
2024/04/07 07:43:46;;;;;;;2.45;1.17;;;15.10;99.90;;;;;;5068503;28;20132;-83
2024/04/07 07:46:12;;;;;;;1.90;1.25;;;15.20;99.90;;;;;;5057600;28;20037;-83
2024/04/07 07:48:39;;;;;;;2.38;1.00;;;15.30;99.90;;;;;;5057400;28;20692;-83
2024/04/07 07:51:12;;;;;;;5.78;1.10;;;15.50;99.90;;;;;;5060956;28;20021;-86
2024/04/07 07:53:38;;;;;;;2.70;1.23;;;15.60;99.90;;;;;;5060692;28;20039;-87
2024/04/07 07:56:08;;;;;;;2.10;0.90;;;15.70;99.90;;;;;;5060074;28;20047;-84
2024/04/07 07:58:35;;;;;;;3.80;1.92;;;15.80;99.90;;;;;;5065342;28;20145;-82
2024/04/07 08:01:01;;;;;;;2.47;1.10;;;15.80;99.90;;;;;;5065509;28;20021;-83
2024/04/07 08:03:26;;;;;;;3.55;0.98;;;15.90;99.90;;;;;;5063996;28;20044;-74
2024/04/07 08:05:52;;;;;;;4.75;1.02;;;16.00;99.90;;;;;;5054878;28;20061;-79
2024/04/07 08:08:19;;;;;;;4.03;1.30;;;16.10;99.90;;;;;;5055620;28;20032;-73
2024/04/07 08:10:45;;;;;;;2.03;1.30;;;16.20;99.90;;;;;;5055942;28;20149;-76
2024/04/07 08:13:10;;;;;;;5.47;1.60;;;16.30;99.90;;;;;;5054983;28;20166;-76
2024/04/07 08:15:36;;;;;;;3.47;1.20;;;16.50;99.90;;;;;;5056168;28;20036;-86
2024/04/07 08:18:02;;;;;;;1.50;1.08;;;16.70;99.90;;;;;;5057076;28;20052;-87
2024/04/07 08:20:28;;;;;;;2.38;1.10;;;16.80;99.90;;;;;;5051475;28;20058;-89
2024/04/07 08:22:53;;;;;;;2.58;1.15;;;17.00;99.90;;;;;;5055948;28;20024;-88
2024/04/07 08:25:19;;;;;;;5.30;1.20;;;17.20;99.90;;;;;;5056505;28;20025;-88
2024/04/07 08:27:44;;;;;;;2.53;1.10;;;17.40;99.90;;;;;;5055591;28;20024;-87
2024/04/07 08:30:10;;;;;;;1.50;1.00;;;17.60;99.90;;;;;;5059382;28;20028;-88
2024/04/07 08:32:36;;;;;;;3.38;1.20;;;17.70;99.90;;;;;;5057296;28;20036;-87
2024/04/07 08:35:01;;;;;;;6.90;1.33;;;17.90;99.90;;;;;;5057944;28;20071;-88
2024/04/07 08:37:27;;;;;;;2.78;1.20;;;18.10;99.90;;;;;;5057322;28;21259;-87
2024/04/07 08:39:52;;;;;;;3.58;1.10;;;18.30;99.90;;;;;;5058398;28;20033;-87
2024/04/07 08:42:20;;;;;;;2.22;1.13;;;18.50;99.90;;;;;;5057769;28;20028;-88
2024/04/07 08:44:47;;;;;;;3.03;1.27;;;18.60;99.90;;;;;;5058425;28;20035;-87
2024/04/07 08:47:16;;;;;;;5.65;1.33;;;18.80;99.90;;;;;;5057327;28;20389;-88
2024/04/07 08:49:42;;;;;;;2.67;1.25;;;19.00;99.90;;;;;;5057715;28;20033;-87
2024/04/07 08:52:08;;;;;;;2.55;1.40;;;19.20;99.90;;;;;;5057257;28;20096;-88
2024/04/07 08:54:35;;;;;;;4.43;1.15;;;19.50;99.90;;;;;;5057087;28;20028;-88
2024/04/07 08:57:07;;;;;;;3.33;1.50;;;19.70;99.90;;;;;;5056391;28;20025;-88
2024/04/07 08:59:33;;;;;;;2.42;1.20;;;19.90;99.90;;;;;;5057887;28;20024;-87
2024/04/07 09:02:02;;;;;;;4.63;1.35;;;20.10;99.90;;;;;;5056220;28;20024;-87
2024/04/07 09:04:32;;;;;;;2.88;1.40;;;20.30;99.90;;;;;;5056279;28;20038;-87
2024/04/07 09:06:59;;;;;;;4.88;1.30;;;20.70;99.90;;;;;;5054855;28;20036;-88
2024/04/07 09:09:24;;;;;;;4.10;1.33;;;20.90;99.90;;;;;;5057487;28;20021;-87
2024/04/07 09:11:51;;;;;;;6.45;1.23;;;21.10;99.90;;;;;;5057204;28;20098;-87
2024/04/07 09:14:17;;;;;;;5.10;1.10;;;21.40;99.90;;;;;;5056345;28;20077;-86
2024/04/07 09:16:43;;;;;;;5.03;1.20;;;21.70;99.90;;;;;;5056819;28;20032;-85
2024/04/07 09:19:08;;;;;;;6.82;1.75;;;21.90;99.90;;;;;;5056606;28;20033;-85
2024/04/07 09:21:34;;;;;;;6.65;1.30;;;22.20;97.10;;;;;;5055871;28;20036;-86
2024/04/07 09:24:00;;;;;;;6.07;1.50;;;22.40;97.20;;;;;;5057017;28;20123;-86
2024/04/07 09:26:25;;;;;;;8.82;1.55;;;22.60;97.50;;;;;;5055307;28;20139;-85
2024/04/07 09:28:51;;;;;;;3.75;1.30;;;22.80;97.20;;;;;;5056858;28;20048;-86
2024/04/07 09:31:19;;;;;;;4.10;1.33;;;23.00;99.50;;;;;;5055861;28;20029;-86
2024/04/07 09:33:47;;;;;;;3.80;1.70;;;23.20;97.20;;;;;;5057142;28;20190;-86
2024/04/07 09:36:13;;;;;;;7.97;1.92;;;23.30;97.20;;;;;;5055166;28;20039;-87
2024/04/07 09:38:39;;;;;;;5.28;1.65;;;23.50;95.70;;;;;;5056293;28;20029;-86
2024/04/07 09:41:04;;;;;;;5.40;1.30;;;23.60;94.70;;;;;;5054889;28;20032;-86
2024/04/07 09:43:35;;;;;;;5.45;1.85;;;23.80;94.10;;;;;;5055543;28;20043;-86
2024/04/07 09:46:03;;;;;;;4.80;1.50;;;23.90;95.00;;;;;;5056025;28;20033;-86
2024/04/07 09:48:28;;;;;;;7.10;1.50;;;24.10;94.60;;;;;;5057152;28;20031;-86
2024/04/07 09:50:58;;;;;;;10.65;1.70;;;24.30;94.30;;;;;;5053507;28;20024;-87
2024/04/07 09:53:40;;;;;;;7.97;1.60;;;24.50;93.20;;;;;;5058037;28;20029;-86
2024/04/07 09:56:11;;;;;;;7.65;1.70;;;24.50;92.00;;;;;;5054024;28;20058;-86
2024/04/07 09:58:38;;;;;;;6.20;1.73;;;24.70;92.00;;;;;;5059341;28;20021;-86
2024/04/07 10:01:04;;;;;;;6.20;1.92;;;24.80;91.50;;;;;;5061189;28;20035;-87
2024/04/07 10:03:31;;;;;;;10.25;1.80;;;24.90;91.60;;;;;;5060894;28;20029;-86
2024/04/07 10:05:56;;;;;;;4.18;1.75;;;25.00;91.80;;;;;;5058958;28;20104;-86
2024/04/07 10:08:22;;;;;;;11.02;2.00;;;25.00;91.30;;;;;;5057608;28;20684;-87
2024/04/07 10:10:48;;;;;;;10.07;1.83;;;25.10;91.30;;;;;;5057250;28;20021;-86
2024/04/07 10:13:21;;;;;;;11.70;2.20;;;25.20;91.00;;;;;;5054903;28;20036;-88
2024/04/07 10:15:49;;;;;;;13.57;2.08;;;25.20;90.50;;;;;;5056942;28;20776;-87
2024/04/07 10:18:19;;;;;;;8.23;1.75;;;25.20;88.80;;;;;;5054300;28;20144;-87
2024/04/07 10:20:52;;;;;;;12.10;1.92;;;25.10;89.90;;;;;;5054022;28;20028;-80
2024/04/07 10:23:19;;;;;;;12.77;2.97;;;25.30;90.00;;;;;;5054668;28;20028;-80
2024/04/07 10:25:48;;;;;;;8.23;1.85;;;25.40;90.20;;;;;;5051603;28;20037;-80
2024/04/07 10:28:16;;;;;;;12.48;2.45;;;25.60;87.10;;;;;;5052488;28;20400;-80
2024/04/07 10:31:00;;;;;;;12.38;2.17;;;25.80;88.80;;;;;;5052469;28;20032;-81
2024/04/07 10:33:29;;;;;;;14.00;2.30;;;26.00;86.30;;;;;;5052779;28;20036;-79
2024/04/07 10:35:56;;;;;;;11.57;2.35;;;26.00;87.50;;;;;;5051167;28;20036;-79
2024/04/07 10:38:23;;;;;;;13.93;2.67;;;26.30;88.30;;;;;;5054128;28;20028;-81
2024/04/07 10:40:55;;;;;;;10.63;2.47;;;26.40;86.10;;;;;;5054133;28;20171;-79
2024/04/07 10:43:21;;;;;;;24.02;3.03;;;26.40;90.10;;;;;;5054120;28;20029;-83
2024/04/07 10:45:48;;;;;;;13.68;2.72;;;26.60;88.30;;;;;;5055379;28;20037;-81
2024/04/07 10:48:13;;;;;;;16.65;2.75;;;26.60;87.00;;;;;;5056944;28;20036;-81
2024/04/07 10:50:39;;;;;;;11.65;2.40;;;26.80;87.20;;;;;;5057777;28;20085;-82
2024/04/07 10:53:08;;;;;;;14.55;2.50;;;27.10;84.80;;;;;;5057310;28;20029;-81
2024/04/07 10:55:34;;;;;;;11.68;2.38;;;27.10;85.60;;;;;;5052074;28;20791;-78
2024/04/07 10:58:00;;;;;;;13.80;2.63;;;27.20;88.10;;;;;;5053946;28;20593;-78
2024/04/07 11:00:25;;;;;;;9.48;2.22;;;27.20;87.10;;;;;;5052467;28;20028;-78
2024/04/07 11:02:52;;;;;;;13.77;2.65;;;27.30;85.20;;;;;;5052509;28;20013;-77
2024/04/07 11:05:18;;;;;;;15.73;3.13;;;27.20;84.50;;;;;;5052652;28;20058;-82
2024/04/07 11:07:45;;;;;;;16.15;2.60;;;27.40;86.40;;;;;;5050736;28;20028;-77
2024/04/07 11:10:11;;;;;;;14.20;2.15;;;27.40;83.80;;;;;;5052661;28;20033;-77
2024/04/07 11:12:41;;;;;;;14.65;2.10;;;27.50;85.40;;;;;;5052534;28;20074;-77
2024/04/07 11:15:22;;;;;;;15.00;3.05;;;27.60;83.90;;;;;;5051887;28;20032;-79
2024/04/07 11:17:47;;;;;;;11.80;2.78;;;27.70;80.20;;;;;;5053338;28;20486;-76
2024/04/07 11:20:13;;;;;;;17.35;2.90;;;27.60;86.20;;;;;;5051089;28;20074;-78
2024/04/07 11:22:39;;;;;;;12.93;2.50;;;27.50;84.50;;;;;;5051907;28;20071;-76
2024/04/07 11:25:05;;;;;;;15.27;2.75;;;27.40;81.60;;;;;;5053596;28;20025;-76
2024/04/07 11:27:32;;;;;;;16.70;2.78;;;27.50;82.50;;;;;;5052390;28;20040;-76
2024/04/07 11:30:01;;;;;;;15.70;3.22;;;27.70;85.20;;;;;;5052611;28;20028;-76
2024/04/07 11:32:27;;;;;;;18.92;2.80;;;27.70;83.30;;;;;;5052340;28;20052;-77
2024/04/07 11:34:53;;;;;;;11.88;2.70;;;27.80;80.40;;;;;;5051784;28;20082;-76
2024/04/07 11:37:19;;;;;;;17.55;2.53;;;27.80;82.00;;;;;;5052297;28;20523;-76
2024/04/07 11:39:50;;;;;;;13.45;3.00;;;27.70;78.60;;;;;;5051169;28;20096;-77
2024/04/07 11:42:15;;;;;;;16.00;2.78;;;27.80;80.70;;;;;;5051475;28;20026;-76
2024/04/07 11:44:41;;;;;;;16.17;2.83;;;27.90;78.40;;;;;;5051899;28;20040;-76
2024/04/07 11:47:07;;;;;;;15.15;2.95;;;27.80;81.20;;;;;;5052824;28;20115;-77
2024/04/07 11:49:33;;;;;;;20.00;2.90;;;27.70;77.30;;;;;;5050664;28;20491;-78
2024/04/07 11:51:59;;;;;;;11.98;2.95;;;27.70;77.80;;;;;;5052667;28;20044;-79
2024/04/07 11:54:24;;;;;;;10.90;2.10;;;27.60;77.20;;;;;;5052231;28;20037;-78
2024/04/07 11:56:51;;;;;;;14.38;2.78;;;27.50;76.00;;;;;;5051216;28;20028;-77
2024/04/07 11:59:17;;;;;;;16.50;3.00;;;27.30;77.80;;;;;;5051007;28;20044;-77
2024/04/07 12:01:42;;;;;;;15.43;3.00;;;27.40;82.10;;;;;;5050090;28;20097;-77
2024/04/07 12:04:08;;;;;;;15.77;3.60;;;27.70;82.00;;;;;;5050292;28;20040;-77
2024/04/07 12:06:34;;;;;;;18.23;3.03;;;27.70;79.00;;;;;;5050427;28;20033;-77
2024/04/07 12:08:59;;;;;;;17.75;3.17;;;27.80;77.20;;;;;;5052766;28;20033;-76
2024/04/07 12:11:25;;;;;;;18.10;2.70;;;27.70;77.60;;;;;;5052327;28;20133;-76
2024/04/07 12:13:50;;;;;;;12.25;2.38;;;27.60;79.30;;;;;;5054344;28;20058;-77
2024/04/07 12:16:18;;;;;;;14.57;2.38;;;27.50;78.90;;;;;;5054918;28;21046;-76
2024/04/07 12:18:43;;;;;;;12.85;2.50;;;27.50;77.60;;;;;;5055704;28;20843;-77
2024/04/07 12:21:09;;;;;;;13.07;2.50;;;27.50;78.10;;;;;;5056711;28;20140;-76
2024/04/07 12:23:34;;;;;;;16.73;2.70;;;27.70;78.40;;;;;;5054170;28;20033;-76
2024/04/07 12:26:00;;;;;;;14.25;2.83;;;27.70;78.70;;;;;;5055731;28;20056;-77
2024/04/07 12:28:25;;;;;;;17.25;2.83;;;27.70;77.60;;;;;;5053902;28;20090;-77
2024/04/07 12:30:52;;;;;;;12.65;3.15;;;27.60;78.90;;;;;;5053191;28;20029;-75
2024/04/07 12:33:18;;;;;;;13.50;2.92;;;27.50;76.00;;;;;;5054249;28;20088;-86
2024/04/07 12:35:44;;;;;;;13.40;3.05;;;27.40;79.40;;;;;;5057014;28;20055;-86
2024/04/07 12:38:09;;;;;;;13.88;3.53;;;27.50;76.90;;;;;;5059113;28;20036;-86
2024/04/07 12:40:35;;;;;;;14.32;2.92;;;27.40;77.40;;;;;;5058322;28;20457;-86
2024/04/07 12:43:01;;;;;;;19.25;3.05;;;27.50;76.50;;;;;;5058407;28;20063;-86
2024/04/07 12:45:27;;;;;;;17.02;3.05;;;27.40;75.90;;;;;;5057850;28;20029;-86